sensor_id;sensor_type;location;lat;lon;timestamp;pressure;altitude;pressure_sealevel;temperature;humidity
21240;BME280;10778;48.962;9.018;2023-02-23T00:01:41;98770.50;;;5.86;100.00
21240;BME280;10778;48.962;9.018;2023-02-23T00:04:08;98772.88;;;5.89;100.00
21240;BME280;10778;48.962;9.018;2023-02-23T00:06:35;98771.81;;;5.91;100.00
21240;BME280;10778;48.962;9.018;2023-02-23T00:09:02;98772.91;;;6.00;100.00
21240;BME280;10778;48.962;9.018;2023-02-23T00:11:36;98770.44;;;6.10;100.00
21240;BME280;10778;48.962;9.018;2023-02-23T00:14:03;98776.25;;;6.14;100.00
21240;BME280;10778;48.962;9.018;2023-02-23T00:16:29;98774.06;;;5.96;100.00
21240;BME280;10778;48.962;9.018;2023-02-23T00:18:56;98772.53;;;5.93;100.00
21240;BME280;10778;48.962;9.018;2023-02-23T00:21:27;98766.34;;;5.94;100.00
21240;BME280;10778;48.962;9.018;2023-02-23T00:24:00;98766.13;;;5.97;100.00
21240;BME280;10778;48.962;9.018;2023-02-23T00:26:30;98766.69;;;5.90;100.00
21240;BME280;10778;48.962;9.018;2023-02-23T00:28:58;98768.00;;;5.95;100.00
21240;BME280;10778;48.962;9.018;2023-02-23T00:31:27;98765.03;;;5.89;100.00
21240;BME280;10778;48.962;9.018;2023-02-23T00:33:55;98758.88;;;5.90;100.00
21240;BME280;10778;48.962;9.018;2023-02-23T00:36:24;98763.97;;;5.91;100.00
21240;BME280;10778;48.962;9.018;2023-02-23T00:38:53;98763.97;;;5.91;100.00
21240;BME280;10778;48.962;9.018;2023-02-23T00:41:19;98759.91;;;5.87;100.00
21240;BME280;10778;48.962;9.018;2023-02-23T00:43:57;98757.19;;;5.89;100.00
21240;BME280;10778;48.962;9.018;2023-02-23T00:46:26;98762.09;;;5.93;100.00
21240;BME280;10778;48.962;9.018;2023-02-23T00:48:53;98756.72;;;5.95;100.00
21240;BME280;10778;48.962;9.018;2023-02-23T00:51:21;98754.34;;;5.92;100.00
21240;BME280;10778;48.962;9.018;2023-02-23T00:53:47;98754.97;;;5.95;100.00
21240;BME280;10778;48.962;9.018;2023-02-23T00:56:15;98751.75;;;5.92;100.00
21240;BME280;10778;48.962;9.018;2023-02-23T00:58:41;98748.66;;;5.87;100.00
21240;BME280;10778;48.962;9.018;2023-02-23T01:01:09;98755.53;;;5.88;100.00
21240;BME280;10778;48.962;9.018;2023-02-23T01:03:36;98747.25;;;5.82;100.00
21240;BME280;10778;48.962;9.018;2023-02-23T01:06:05;98739.16;;;5.86;100.00
21240;BME280;10778;48.962;9.018;2023-02-23T01:08:32;98751.38;;;5.85;100.00
21240;BME280;10778;48.962;9.018;2023-02-23T01:11:05;98750.31;;;5.88;100.00
21240;BME280;10778;48.962;9.018;2023-02-23T01:13:31;98753.75;;;5.88;100.00
21240;BME280;10778;48.962;9.018;2023-02-23T01:15:57;98753.97;;;5.85;100.00
21240;BME280;10778;48.962;9.018;2023-02-23T01:18:24;98753.75;;;5.88;100.00
21240;BME280;10778;48.962;9.018;2023-02-23T01:20:50;98743.09;;;5.91;100.00
21240;BME280;10778;48.962;9.018;2023-02-23T01:23:18;98749.97;;;5.92;100.00
21240;BME280;10778;48.962;9.018;2023-02-23T01:25:46;98753.75;;;5.88;100.00
21240;BME280;10778;48.962;9.018;2023-02-23T01:28:12;98753.41;;;5.93;100.00
21240;BME280;10778;48.962;9.018;2023-02-23T01:30:39;98754.13;;;5.95;100.00
21240;BME280;10778;48.962;9.018;2023-02-23T01:33:07;98762.44;;;6.00;100.00
21240;BME280;10778;48.962;9.018;2023-02-23T01:35:33;98758.91;;;6.01;100.00
21240;BME280;10778;48.962;9.018;2023-02-23T01:37:59;98757.22;;;6.00;100.00
21240;BME280;10778;48.962;9.018;2023-02-23T01:40:26;98751.03;;;5.90;100.00
21240;BME280;10778;48.962;9.018;2023-02-23T01:43:05;98746.75;;;5.89;100.00
21240;BME280;10778;48.962;9.018;2023-02-23T01:45:38;98749.22;;;5.90;100.00
21240;BME280;10778;48.962;9.018;2023-02-23T01:48:07;98744.97;;;5.89;100.00
21240;BME280;10778;48.962;9.018;2023-02-23T01:53:26;98748.16;;;5.81;100.00
21240;BME280;10778;48.962;9.018;2023-02-23T01:55:56;98747.25;;;5.82;100.00
21240;BME280;10778;48.962;9.018;2023-02-23T01:58:24;98749.72;;;5.84;100.00
21240;BME280;10778;48.962;9.018;2023-02-23T02:00:55;98746.16;;;5.85;100.00
21240;BME280;10778;48.962;9.018;2023-02-23T02:05:54;98745.31;;;5.96;100.00
21240;BME280;10778;48.962;9.018;2023-02-23T02:08:23;98746.78;;;6.00;100.00
21240;BME280;10778;48.962;9.018;2023-02-23T02:10:51;98747.38;;;6.04;100.00
21240;BME280;10778;48.962;9.018;2023-02-23T02:13:24;98742.28;;;6.02;100.00
21240;BME280;10778;48.962;9.018;2023-02-23T02:16:19;98736.22;;;6.02;100.00
21240;BME280;10778;48.962;9.018;2023-02-23T02:22:00;98736.22;;;6.02;100.00
21240;BME280;10778;48.962;9.018;2023-02-23T02:33:32;98728.34;;;5.90;100.00
21240;BME280;10778;48.962;9.018;2023-02-23T02:41:24;98730.03;;;5.91;100.00
21240;BME280;10778;48.962;9.018;2023-02-23T02:44:03;98729.19;;;5.91;100.00
21240;BME280;10778;48.962;9.018;2023-02-23T02:46:37;98730.84;;;5.92;100.00
21240;BME280;10778;48.962;9.018;2023-02-23T02:49:29;98733.09;;;5.85;100.00
21240;BME280;10778;48.962;9.018;2023-02-23T02:52:02;98727.53;;;5.90;100.00
21240;BME280;10778;48.962;9.018;2023-02-23T02:54:43;98722.34;;;6.01;100.00
21240;BME280;10778;48.962;9.018;2023-02-23T02:57:14;98724.38;;;6.09;100.00
21240;BME280;10778;48.962;9.018;2023-02-23T02:59:47;98728.16;;;6.05;100.00
21240;BME280;10778;48.962;9.018;2023-02-23T03:02:35;98719.50;;;6.04;100.00
21240;BME280;10778;48.962;9.018;2023-02-23T03:05:23;98715.69;;;6.08;100.00
21240;BME280;10778;48.962;9.018;2023-02-23T03:08:20;98706.66;;;6.12;100.00
21240;BME280;10778;48.962;9.018;2023-02-23T03:11:09;98713.69;;;6.12;100.00
21240;BME280;10778;48.962;9.018;2023-02-23T03:14:10;98719.72;;;6.12;100.00
21240;BME280;10778;48.962;9.018;2023-02-23T03:17:13;98718.66;;;6.04;100.00
21240;BME280;10778;48.962;9.018;2023-02-23T03:23:17;98728.72;;;5.97;100.00
21240;BME280;10778;48.962;9.018;2023-02-23T03:26:08;98727.44;;;5.91;100.00
21240;BME280;10778;48.962;9.018;2023-02-23T03:29:08;98731.22;;;5.98;100.00
21240;BME280;10778;48.962;9.018;2023-02-23T03:32:03;98727.66;;;6.00;100.00
21240;BME280;10778;48.962;9.018;2023-02-23T03:38:04;98727.94;;;6.08;100.00
21240;BME280;10778;48.962;9.018;2023-02-23T03:40:53;98728.41;;;6.13;100.00
21240;BME280;10778;48.962;9.018;2023-02-23T03:43:46;98724.84;;;6.14;100.00
21240;BME280;10778;48.962;9.018;2023-02-23T03:46:34;98722.00;;;6.17;100.00
21240;BME280;10778;48.962;9.018;2023-02-23T03:49:21;98727.56;;;6.12;100.00
21240;BME280;10778;48.962;9.018;2023-02-23T03:52:13;98724.84;;;6.14;100.00
21240;BME280;10778;48.962;9.018;2023-02-23T03:55:03;98728.03;;;6.06;100.00
21240;BME280;10778;48.962;9.018;2023-02-23T03:57:51;98732.81;;;6.01;100.00
21240;BME280;10778;48.962;9.018;2023-02-23T04:00:43;98725.53;;;6.05;100.00
21240;BME280;10778;48.962;9.018;2023-02-23T04:03:31;98731.47;;;6.07;100.00
21240;BME280;10778;48.962;9.018;2023-02-23T04:06:17;98728.88;;;6.07;100.00
21240;BME280;10778;48.962;9.018;2023-02-23T04:09:05;98726.38;;;6.05;100.00
21240;BME280;10778;48.962;9.018;2023-02-23T04:11:55;98731.84;;;6.25;100.00
21240;BME280;10778;48.962;9.018;2023-02-23T04:17:37;98730.53;;;6.19;100.00
21240;BME280;10778;48.962;9.018;2023-02-23T04:20:04;98729.00;;;6.05;100.00
21240;BME280;10778;48.962;9.018;2023-02-23T04:22:31;98732.78;;;6.12;100.00
21240;BME280;10778;48.962;9.018;2023-02-23T04:24:57;98731.47;;;6.18;100.00
21240;BME280;10778;48.962;9.018;2023-02-23T04:27:23;98731.25;;;6.10;100.00
21240;BME280;10778;48.962;9.018;2023-02-23T04:29:49;98732.31;;;6.07;100.00
21240;BME280;10778;48.962;9.018;2023-02-23T04:32:17;98734.22;;;6.05;100.00
21240;BME280;10778;48.962;9.018;2023-02-23T04:34:44;98740.81;;;5.98;100.00
21240;BME280;10778;48.962;9.018;2023-02-23T04:37:10;98734.63;;;5.99;100.00
21240;BME280;10778;48.962;9.018;2023-02-23T04:39:36;98738.09;;;6.00;100.00
21240;BME280;10778;48.962;9.018;2023-02-23T04:42:02;98737.06;;;6.02;100.00
21240;BME280;10778;48.962;9.018;2023-02-23T04:44:28;98736.00;;;6.05;100.00
21240;BME280;10778;48.962;9.018;2023-02-23T04:46:56;98743.81;;;6.05;100.00
21240;BME280;10778;48.962;9.018;2023-02-23T04:49:22;98743.81;;;6.05;100.00
21240;BME280;10778;48.962;9.018;2023-02-23T04:51:48;98734.81;;;6.09;100.00
21240;BME280;10778;48.962;9.018;2023-02-23T04:54:14;98738.72;;;6.03;100.00
21240;BME280;10778;48.962;9.018;2023-02-23T04:56:40;98739.75;;;6.01;100.00
21240;BME280;10778;48.962;9.018;2023-02-23T04:59:06;98738.94;;;6.00;100.00
21240;BME280;10778;48.962;9.018;2023-02-23T05:01:33;98738.03;;;6.01;100.00
21240;BME280;10778;48.962;9.018;2023-02-23T05:03:59;98737.16;;;6.01;100.00
21240;BME280;10778;48.962;9.018;2023-02-23T05:06:29;98732.88;;;6.00;100.00
21240;BME280;10778;48.962;9.018;2023-02-23T05:08:55;98738.94;;;6.00;100.00
21240;BME280;10778;48.962;9.018;2023-02-23T05:11:21;98732.97;;;5.98;100.00
21240;BME280;10778;48.962;9.018;2023-02-23T05:13:47;98736.34;;;6.00;100.00
21240;BME280;10778;48.962;9.018;2023-02-23T05:16:13;98726.50;;;6.04;100.00
21240;BME280;10778;48.962;9.018;2023-02-23T05:18:39;98732.22;;;6.09;100.00
21240;BME280;10778;48.962;9.018;2023-02-23T05:21:07;98732.56;;;6.04;100.00
21240;BME280;10778;48.962;9.018;2023-02-23T05:23:37;98737.88;;;6.03;100.00
21240;BME280;10778;48.962;9.018;2023-02-23T05:26:05;98731.09;;;6.00;100.00
21240;BME280;10778;48.962;9.018;2023-02-23T05:28:33;98732.88;;;6.00;100.00
21240;BME280;10778;48.962;9.018;2023-02-23T05:31:00;98733.22;;;5.95;100.00
21240;BME280;10778;48.962;9.018;2023-02-23T05:33:29;98736.91;;;5.92;100.00
21240;BME280;10778;48.962;9.018;2023-02-23T05:35:55;98739.75;;;5.89;100.00
21240;BME280;10778;48.962;9.018;2023-02-23T05:38:21;98740.81;;;5.87;100.00
21240;BME280;10778;48.962;9.018;2023-02-23T05:40:47;98741.53;;;5.89;100.00
21240;BME280;10778;48.962;9.018;2023-02-23T05:43:13;98744.97;;;5.89;100.00
21240;BME280;10778;48.962;9.018;2023-02-23T05:45:40;98745.81;;;5.90;100.00
21240;BME280;10778;48.962;9.018;2023-02-23T05:48:07;98740.69;;;5.88;100.00
21240;BME280;10778;48.962;9.018;2023-02-23T05:50:34;98740.25;;;5.94;100.00
21240;BME280;10778;48.962;9.018;2023-02-23T05:53:00;98734.06;;;5.95;100.00
21240;BME280;10778;48.962;9.018;2023-02-23T05:55:27;98741.19;;;5.93;100.00
21240;BME280;10778;48.962;9.018;2023-02-23T05:57:53;98732.66;;;5.91;100.00
21240;BME280;10778;48.962;9.018;2023-02-23T06:00:19;98730.03;;;5.91;100.00
21240;BME280;10778;48.962;9.018;2023-02-23T06:02:46;98737.50;;;5.96;100.00
21240;BME280;10778;48.962;9.018;2023-02-23T06:05:12;98740.25;;;5.94;100.00
21240;BME280;10778;48.962;9.018;2023-02-23T06:07:38;98736.19;;;5.90;100.00
21240;BME280;10778;48.962;9.018;2023-02-23T06:10:05;98742.34;;;5.89;100.00
21240;BME280;10778;48.962;9.018;2023-02-23T06:12:32;98746.88;;;5.87;100.00
21240;BME280;10778;48.962;9.018;2023-02-23T06:14:58;98751.50;;;5.83;100.00
21240;BME280;10778;48.962;9.018;2023-02-23T06:17:24;98749.00;;;5.82;100.00
21240;BME280;10778;48.962;9.018;2023-02-23T06:19:50;98753.50;;;5.80;100.00
21240;BME280;10778;48.962;9.018;2023-02-23T06:22:16;98750.19;;;5.78;100.00
21240;BME280;10778;48.962;9.018;2023-02-23T06:24:44;98754.56;;;5.77;100.00
21240;BME280;10778;48.962;9.018;2023-02-23T06:27:11;98760.50;;;5.79;100.00
21240;BME280;10778;48.962;9.018;2023-02-23T06:29:36;98755.97;;;5.81;100.00
21240;BME280;10778;48.962;9.018;2023-02-23T06:32:03;98758.84;;;5.78;100.00
21240;BME280;10778;48.962;9.018;2023-02-23T06:34:29;98756.47;;;5.75;100.00
21240;BME280;10778;48.962;9.018;2023-02-23T06:36:57;98759.91;;;5.76;100.00
21240;BME280;10778;48.962;9.018;2023-02-23T06:39:23;98766.78;;;5.77;100.00
21240;BME280;10778;48.962;9.018;2023-02-23T06:41:49;98764.19;;;5.77;100.00
21240;BME280;10778;48.962;9.018;2023-02-23T06:44:15;98767.75;;;5.76;100.00
21240;BME280;10778;48.962;9.018;2023-02-23T06:46:41;98778.91;;;5.78;100.00
21240;BME280;10778;48.962;9.018;2023-02-23T06:49:10;98778.78;;;5.79;100.00
21240;BME280;10778;48.962;9.018;2023-02-23T06:51:36;98770.84;;;5.81;100.00
21240;BME280;10778;48.962;9.018;2023-02-23T06:54:02;98776.78;;;5.83;100.00
21240;BME280;10778;48.962;9.018;2023-02-23T06:56:28;98774.63;;;5.77;100.00
21240;BME280;10778;48.962;9.018;2023-02-23T06:58:54;98783.63;;;5.73;100.00
21240;BME280;10778;48.962;9.018;2023-02-23T07:01:20;98784.47;;;5.73;100.00
21240;BME280;10778;48.962;9.018;2023-02-23T07:03:46;98782.69;;;5.74;100.00
21240;BME280;10778;48.962;9.018;2023-02-23T07:06:12;98783.53;;;5.97;100.00
21240;BME280;10778;48.962;9.018;2023-02-23T07:08:38;98786.03;;;5.87;100.00
21240;BME280;10778;48.962;9.018;2023-02-23T07:11:09;98788.53;;;5.89;100.00
21240;BME280;10778;48.962;9.018;2023-02-23T07:13:36;98789.00;;;5.94;100.00
21240;BME280;10778;48.962;9.018;2023-02-23T07:16:02;98797.13;;;6.02;100.00
21240;BME280;10778;48.962;9.018;2023-02-23T07:18:28;98793.94;;;6.10;100.00
21240;BME280;10778;48.962;9.018;2023-02-23T07:20:54;98794.06;;;6.08;100.00
21240;BME280;10778;48.962;9.018;2023-02-23T07:23:20;98794.16;;;6.07;100.00
21240;BME280;10778;48.962;9.018;2023-02-23T07:25:52;98803.69;;;6.08;100.00
21240;BME280;10778;48.962;9.018;2023-02-23T07:28:19;98808.53;;;6.12;100.00
21240;BME280;10778;48.962;9.018;2023-02-23T07:30:46;98805.34;;;6.20;100.00
21240;BME280;10778;48.962;9.018;2023-02-23T07:33:12;98806.16;;;6.32;100.00
21240;BME280;10778;48.962;9.018;2023-02-23T07:35:38;98808.78;;;6.32;100.00
21240;BME280;10778;48.962;9.018;2023-02-23T07:38:04;98813.19;;;6.32;100.00
21240;BME280;10778;48.962;9.018;2023-02-23T07:40:32;98814.63;;;6.47;100.00
21240;BME280;10778;48.962;9.018;2023-02-23T07:42:58;98814.38;;;6.50;100.00
21240;BME280;10778;48.962;9.018;2023-02-23T07:45:24;98808.66;;;6.57;100.00
21240;BME280;10778;48.962;9.018;2023-02-23T07:47:50;98814.97;;;6.65;100.00
21240;BME280;10778;48.962;9.018;2023-02-23T07:50:16;98816.16;;;6.61;100.00
21240;BME280;10778;48.962;9.018;2023-02-23T07:52:43;98815.44;;;6.59;100.00
21240;BME280;10778;48.962;9.018;2023-02-23T07:55:10;98814.16;;;6.65;100.00
21240;BME280;10778;48.962;9.018;2023-02-23T07:57:36;98813.78;;;6.69;100.00
21240;BME280;10778;48.962;9.018;2023-02-23T08:00:04;98807.56;;;6.82;100.00
21240;BME280;10778;48.962;9.018;2023-02-23T08:02:38;98815.53;;;6.92;100.00
21240;BME280;10778;48.962;9.018;2023-02-23T08:05:05;98817.88;;;7.06;100.00
21240;BME280;10778;48.962;9.018;2023-02-23T08:07:32;98816.69;;;7.10;100.00
21240;BME280;10778;48.962;9.018;2023-02-23T08:09:58;98819.41;;;7.20;100.00
21240;BME280;10778;48.962;9.018;2023-02-23T08:12:25;98814.72;;;7.24;100.00
21240;BME280;10778;48.962;9.018;2023-02-23T08:14:51;98809.72;;;7.32;100.00
21240;BME280;10778;48.962;9.018;2023-02-23T08:17:18;98818.28;;;7.34;100.00
21240;BME280;10778;48.962;9.018;2023-02-23T08:19:44;98822.91;;;7.42;100.00
21240;BME280;10778;48.962;9.018;2023-02-23T08:22:10;98823.47;;;7.46;100.00
21240;BME280;10778;48.962;9.018;2023-02-23T08:24:36;98824.31;;;7.46;100.00
21240;BME280;10778;48.962;9.018;2023-02-23T08:27:03;98820.47;;;7.50;100.00
21240;BME280;10778;48.962;9.018;2023-02-23T08:29:29;98822.88;;;7.53;100.00
21240;BME280;10778;48.962;9.018;2023-02-23T08:31:55;98828.09;;;7.53;100.00
21240;BME280;10778;48.962;9.018;2023-02-23T08:34:21;98826.56;;;7.51;100.00
21240;BME280;10778;48.962;9.018;2023-02-23T08:36:48;98822.38;;;7.81;100.00
21240;BME280;10778;48.962;9.018;2023-02-23T08:39:14;98821.13;;;8.28;100.00
21240;BME280;10778;48.962;9.018;2023-02-23T08:41:41;98815.75;;;8.29;100.00
21240;BME280;10778;48.962;9.018;2023-02-23T08:44:07;98816.84;;;8.89;100.00
21240;BME280;10778;48.962;9.018;2023-02-23T08:46:33;98819.59;;;8.87;100.00
21240;BME280;10778;48.962;9.018;2023-02-23T08:48:59;98814.72;;;9.43;100.00
21240;BME280;10778;48.962;9.018;2023-02-23T08:51:25;98814.91;;;10.19;100.00
21240;BME280;10778;48.962;9.018;2023-02-23T08:53:51;98817.88;;;9.66;100.00
21240;BME280;10778;48.962;9.018;2023-02-23T08:56:17;98817.03;;;9.86;100.00
21240;BME280;10778;48.962;9.018;2023-02-23T08:58:44;98819.84;;;10.32;100.00
21240;BME280;10778;48.962;9.018;2023-02-23T09:01:18;98815.44;;;10.70;100.00
21240;BME280;10778;48.962;9.018;2023-02-23T09:03:44;98811.03;;;10.61;99.65
21240;BME280;10778;48.962;9.018;2023-02-23T09:06:16;98820.16;;;10.66;100.00
21240;BME280;10778;48.962;9.018;2023-02-23T09:08:43;98827.28;;;10.46;100.00
21240;BME280;10778;48.962;9.018;2023-02-23T09:11:09;98816.50;;;10.39;100.00
21240;BME280;10778;48.962;9.018;2023-02-23T09:13:35;98817.19;;;10.32;100.00
21240;BME280;10778;48.962;9.018;2023-02-23T09:16:01;98821.53;;;10.13;100.00
21240;BME280;10778;48.962;9.018;2023-02-23T09:18:29;98815.56;;;10.21;100.00
21240;BME280;10778;48.962;9.018;2023-02-23T09:20:56;98822.16;;;10.55;100.00
21240;BME280;10778;48.962;9.018;2023-02-23T09:23:22;98823.31;;;10.42;99.64
21240;BME280;10778;48.962;9.018;2023-02-23T09:25:49;98824.78;;;9.97;100.00
21240;BME280;10778;48.962;9.018;2023-02-23T09:28:17;98818.31;;;10.39;100.00
21240;BME280;10778;48.962;9.018;2023-02-23T09:30:44;98811.34;;;10.58;100.00
21240;BME280;10778;48.962;9.018;2023-02-23T09:33:11;98815.44;;;10.70;100.00
21240;BME280;10778;48.962;9.018;2023-02-23T09:35:38;98807.72;;;10.87;99.92
21240;BME280;10778;48.962;9.018;2023-02-23T09:38:06;98811.59;;;11.29;98.98
21240;BME280;10778;48.962;9.018;2023-02-23T09:40:43;98808.84;;;11.30;95.78
21240;BME280;10778;48.962;9.018;2023-02-23T09:43:11;98810.88;;;11.18;99.95
21240;BME280;10778;48.962;9.018;2023-02-23T09:45:43;98803.31;;;11.78;95.95
21240;BME280;10778;48.962;9.018;2023-02-23T09:48:18;98812.03;;;11.97;93.53
21240;BME280;10778;48.962;9.018;2023-02-23T09:50:52;98807.59;;;11.79;93.44
21240;BME280;10778;48.962;9.018;2023-02-23T09:53:41;98808.84;;;11.48;95.38
21240;BME280;10778;48.962;9.018;2023-02-23T09:56:28;98802.78;;;11.74;92.02
21240;BME280;10778;48.962;9.018;2023-02-23T09:58:58;98815.31;;;11.36;97.30
21240;BME280;10778;48.962;9.018;2023-02-23T10:04:35;98820.69;;;12.33;93.40
21240;BME280;10778;48.962;9.018;2023-02-23T10:07:25;98813.41;;;13.13;89.21
21240;BME280;10778;48.962;9.018;2023-02-23T10:15:33;98824.22;;;12.16;89.73
21240;BME280;10778;48.962;9.018;2023-02-23T10:23:49;98814.13;;;11.93;94.84
21240;BME280;10778;48.962;9.018;2023-02-23T10:26:24;98816.41;;;11.88;95.90
21240;BME280;10778;48.962;9.018;2023-02-23T10:28:54;98814.22;;;11.83;93.97
21240;BME280;10778;48.962;9.018;2023-02-23T10:31:43;98817.06;;;11.90;95.26
21240;BME280;10778;48.962;9.018;2023-02-23T10:34:15;98809.72;;;12.55;92.20
21240;BME280;10778;48.962;9.018;2023-02-23T10:39:24;98809.09;;;14.45;79.41
21240;BME280;10778;48.962;9.018;2023-02-23T10:41:50;98808.34;;;15.07;78.26
21240;BME280;10778;48.962;9.018;2023-02-23T10:44:20;98813.44;;;15.64;74.25
21240;BME280;10778;48.962;9.018;2023-02-23T10:46:52;98809.78;;;14.87;76.65
21240;BME280;10778;48.962;9.018;2023-02-23T10:49:21;98811.47;;;14.23;80.01
21240;BME280;10778;48.962;9.018;2023-02-23T10:51:49;98813.16;;;13.91;81.36
21240;BME280;10778;48.962;9.018;2023-02-23T10:54:35;98816.16;;;13.88;81.36
21240;BME280;10778;48.962;9.018;2023-02-23T10:57:03;98810.84;;;14.61;78.40
21240;BME280;10778;48.962;9.018;2023-02-23T10:59:31;98808.50;;;14.83;75.38
21240;BME280;10778;48.962;9.018;2023-02-23T11:01:57;98807.66;;;14.82;76.16
21240;BME280;10778;48.962;9.018;2023-02-23T11:04:28;98814.56;;;14.35;77.44
21240;BME280;10778;48.962;9.018;2023-02-23T11:09:35;98809.53;;;13.75;81.07
21240;BME280;10778;48.962;9.018;2023-02-23T11:14:37;98811.88;;;12.94;81.16
21240;BME280;10778;48.962;9.018;2023-02-23T11:17:03;98809.28;;;13.11;81.80
21240;BME280;10778;48.962;9.018;2023-02-23T11:19:31;98798.06;;;13.25;80.31
21240;BME280;10778;48.962;9.018;2023-02-23T11:21:57;98795.41;;;13.17;82.08
21240;BME280;10778;48.962;9.018;2023-02-23T11:24:32;98796.53;;;12.98;81.14
21240;BME280;10778;48.962;9.018;2023-02-23T11:27:00;98785.88;;;13.41;82.27
21240;BME280;10778;48.962;9.018;2023-02-23T11:29:32;98781.91;;;13.36;77.60
21240;BME280;10778;48.962;9.018;2023-02-23T11:32:17;98781.22;;;13.43;75.21
21240;BME280;10778;48.962;9.018;2023-02-23T11:34:45;98784.09;;;13.58;78.04
21240;BME280;10778;48.962;9.018;2023-02-23T11:37:20;98776.00;;;13.68;78.12
21240;BME280;10778;48.962;9.018;2023-02-23T11:39:55;98770.06;;;13.65;75.72
21240;BME280;10778;48.962;9.018;2023-02-23T11:42:26;98768.03;;;13.76;79.16
21240;BME280;10778;48.962;9.018;2023-02-23T11:47:32;98766.41;;;13.67;77.57
21240;BME280;10778;48.962;9.018;2023-02-23T11:50:01;98757.94;;;13.96;76.89
21240;BME280;10778;48.962;9.018;2023-02-23T11:52:28;98755.88;;;14.63;73.23
21240;BME280;10778;48.962;9.018;2023-02-23T11:54:59;98752.84;;;15.38;69.22
21240;BME280;10778;48.962;9.018;2023-02-23T11:57:32;98744.53;;;15.56;69.27
21240;BME280;10778;48.962;9.018;2023-02-23T12:00:03;98750.28;;;15.68;68.77
21240;BME280;10778;48.962;9.018;2023-02-23T12:02:57;98745.44;;;15.86;65.99
21240;BME280;10778;48.962;9.018;2023-02-23T12:05:28;98750.31;;;15.21;71.34
21240;BME280;10778;48.962;9.018;2023-02-23T12:15:49;98740.88;;;14.15;70.72
21240;BME280;10778;48.962;9.018;2023-02-23T12:18:26;98743.75;;;13.80;68.48
21240;BME280;10778;48.962;9.018;2023-02-23T12:20:56;98747.75;;;13.60;69.80
21240;BME280;10778;48.962;9.018;2023-02-23T12:23:28;98743.44;;;13.42;70.76
21240;BME280;10778;48.962;9.018;2023-02-23T12:26:09;98746.38;;;13.06;74.14
21240;BME280;10778;48.962;9.018;2023-02-23T12:28:56;98744.22;;;13.01;74.54
21240;BME280;10778;48.962;9.018;2023-02-23T12:31:46;98745.88;;;12.94;73.71
21240;BME280;10778;48.962;9.018;2023-02-23T12:34:38;98747.34;;;12.88;75.31
21240;BME280;10778;48.962;9.018;2023-02-23T12:39:47;98743.50;;;12.74;71.79
21240;BME280;10778;48.962;9.018;2023-02-23T12:42:23;98741.34;;;12.70;72.98
21240;BME280;10778;48.962;9.018;2023-02-23T12:45:03;98741.50;;;12.68;71.75
21240;BME280;10778;48.962;9.018;2023-02-23T12:47:38;98736.75;;;12.80;70.46
21240;BME280;10778;48.962;9.018;2023-02-23T12:50:34;98727.66;;;12.66;72.38
21240;BME280;10778;48.962;9.018;2023-02-23T13:01:35;98735.28;;;12.34;75.86
21240;BME280;10778;48.962;9.018;2023-02-23T13:04:07;98737.22;;;12.24;76.08
21240;BME280;10778;48.962;9.018;2023-02-23T13:06:49;98738.44;;;12.03;78.07
21240;BME280;10778;48.962;9.018;2023-02-23T13:12:23;98732.94;;;11.97;76.38
21240;BME280;10778;48.962;9.018;2023-02-23T13:17:36;98739.19;;;11.69;80.48
21240;BME280;10778;48.962;9.018;2023-02-23T13:23:15;98738.03;;;11.72;81.39
21240;BME280;10778;48.962;9.018;2023-02-23T13:28:41;98733.69;;;11.89;80.65
21240;BME280;10778;48.962;9.018;2023-02-23T13:31:21;98726.66;;;11.98;81.38
21240;BME280;10778;48.962;9.018;2023-02-23T13:33:48;98731.34;;;12.04;80.80
21240;BME280;10778;48.962;9.018;2023-02-23T13:36:14;98729.88;;;12.09;81.52
21240;BME280;10778;48.962;9.018;2023-02-23T13:43:46;98724.09;;;12.49;78.89
21240;BME280;10778;48.962;9.018;2023-02-23T13:54:37;98721.09;;;12.87;76.56
21240;BME280;10778;48.962;9.018;2023-02-23T13:57:12;98721.13;;;12.95;77.57
21240;BME280;10778;48.962;9.018;2023-02-23T13:59:43;98718.44;;;12.78;77.21
21240;BME280;10778;48.962;9.018;2023-02-23T14:02:29;98712.34;;;12.86;76.03
21240;BME280;10778;48.962;9.018;2023-02-23T14:05:21;98713.31;;;12.69;76.93
21240;BME280;10778;48.962;9.018;2023-02-23T14:08:01;98722.66;;;12.55;77.32
21240;BME280;10778;48.962;9.018;2023-02-23T14:10:40;98717.97;;;12.40;78.18
21240;BME280;10778;48.962;9.018;2023-02-23T14:18:27;98710.19;;;12.30;78.56
21240;BME280;10778;48.962;9.018;2023-02-23T14:21:16;98717.03;;;12.15;79.12
21240;BME280;10778;48.962;9.018;2023-02-23T14:29:10;98712.72;;;12.05;79.40
21240;BME280;10778;48.962;9.018;2023-02-23T14:34:52;98710.25;;;12.04;78.75
21240;BME280;10778;48.962;9.018;2023-02-23T14:42:29;98721.16;;;11.83;80.46
21240;BME280;10778;48.962;9.018;2023-02-23T14:44:57;98720.06;;;11.93;80.48
21240;BME280;10778;48.962;9.018;2023-02-23T14:47:27;98707.66;;;11.86;81.55
21240;BME280;10778;48.962;9.018;2023-02-23T14:49:59;98715.16;;;11.72;82.70
21240;BME280;10778;48.962;9.018;2023-02-23T14:52:34;98713.72;;;11.78;82.34
21240;BME280;10778;48.962;9.018;2023-02-23T14:57:37;98714.94;;;11.65;84.39
21240;BME280;10778;48.962;9.018;2023-02-23T15:00:15;98721.88;;;11.66;85.04
21240;BME280;10778;48.962;9.018;2023-02-23T15:03:08;98719.00;;;11.60;87.15
21240;BME280;10778;48.962;9.018;2023-02-23T15:05:44;98722.28;;;11.53;88.27
21240;BME280;10778;48.962;9.018;2023-02-23T15:08:15;98711.50;;;11.65;87.48
21240;BME280;10778;48.962;9.018;2023-02-23T15:10:46;98714.13;;;11.65;87.16
21240;BME280;10778;48.962;9.018;2023-02-23T15:15:52;98721.88;;;11.66;87.63
21240;BME280;10778;48.962;9.018;2023-02-23T15:21:58;98724.72;;;11.55;85.29
21240;BME280;10778;48.962;9.018;2023-02-23T15:24:39;98726.66;;;11.45;91.58
21240;BME280;10778;48.962;9.018;2023-02-23T15:27:16;98722.78;;;11.31;93.46
21240;BME280;10778;48.962;9.018;2023-02-23T15:29:42;98718.75;;;11.27;94.65
21240;BME280;10778;48.962;9.018;2023-02-23T15:32:20;98723.88;;;11.28;95.67